Time;durP1;ratioP1;P1;durP2;ratioP2;P2;SDS_P1;SDS_P2;PMS_P1;PMS_P2;Temp;Humidity;BMP_temperature;BMP_pressure;BME280_temperature;BME280_humidity;BME280_pressure;Samples;Min_cycle;Max_cycle;Signal;HPM_P1;HPM_P2
2021/09/24 00:01:24;;;;;;;12.20;2.15;;;;;;;;;;5020952;28;20265;-72
2021/09/24 00:03:50;;;;;;;14.73;2.45;;;;;;;;;;5030184;28;20642;-73
2021/09/24 00:06:15;;;;;;;12.90;2.53;;;;;;;;;;5021190;28;20224;-73
2021/09/24 00:08:41;;;;;;;16.92;2.58;;;;;;;;;;5028657;28;20238;-72
2021/09/24 00:11:06;;;;;;;15.82;3.03;;;;;;;;;;5022406;28;20193;-72
2021/09/24 00:13:32;;;;;;;15.77;2.45;;;;;;;;;;5028446;28;20261;-72
2021/09/24 00:15:57;;;;;;;11.15;2.55;;;;;;;;;;5021302;28;20516;-73
2021/09/24 00:18:23;;;;;;;15.23;2.35;;;;;;;;;;5030835;28;20585;-73
2021/09/24 00:20:48;;;;;;;15.93;3.05;;;;;;;;;;5027796;28;20269;-73
2021/09/24 00:23:14;;;;;;;11.95;2.08;;;;;;;;;;5019859;28;20276;-72
2021/09/24 00:25:39;;;;;;;15.48;2.72;;;;;;;;;;5026027;28;20190;-72
2021/09/24 00:28:06;;;;;;;12.93;2.17;;;;;;;;;;5017342;28;20214;-73
2021/09/24 00:30:32;;;;;;;14.60;2.67;;;;;;;;;;5031167;28;20186;-73
2021/09/24 00:32:57;;;;;;;13.88;3.22;;;;;;;;;;5022232;28;20275;-72
2021/09/24 00:35:23;;;;;;;11.35;2.38;;;;;;;;;;5027271;28;20269;-73
2021/09/24 00:37:48;;;;;;;10.82;2.35;;;;;;;;;;5019748;28;20231;-73
2021/09/24 00:40:14;;;;;;;10.65;2.20;;;;;;;;;;5030558;28;20194;-72
2021/09/24 00:42:39;;;;;;;10.57;2.40;;;;;;;;;;5018863;28;21359;-73
2021/09/24 00:45:06;;;;;;;13.75;2.30;;;;;;;;;;5027901;28;20240;-73
2021/09/24 00:47:32;;;;;;;10.65;2.70;;;;;;;;;;5022130;28;20270;-71
2021/09/24 00:49:58;;;;;;;11.52;2.30;;;;;;;;;;5026281;28;20272;-71
2021/09/24 00:52:24;;;;;;;16.15;3.03;;;;;;;;;;5025650;28;20190;-72
2021/09/24 00:54:51;;;;;;;10.38;2.78;;;;;;;;;;5020593;28;20224;-72
2021/09/24 00:57:18;;;;;;;10.77;2.92;;;;;;;;;;5028308;28;20308;-72
2021/09/24 00:59:44;;;;;;;13.40;2.63;;;;;;;;;;5020663;28;20568;-73
2021/09/24 01:02:09;;;;;;;8.77;2.30;;;;;;;;;;5025558;28;20189;-72
2021/09/24 01:04:35;;;;;;;16.40;2.33;;;;;;;;;;5022809;28;21310;-72
2021/09/24 01:07:01;;;;;;;21.38;2.83;;;;;;;;;;5026315;28;20240;-73
2021/09/24 01:09:27;;;;;;;10.70;2.45;;;;;;;;;;5017120;28;20196;-73
2021/09/24 01:11:53;;;;;;;12.48;2.78;;;;;;;;;;5029415;28;20509;-73
2021/09/24 01:14:18;;;;;;;12.10;2.30;;;;;;;;;;5019135;28;20193;-72
2021/09/24 01:16:44;;;;;;;13.68;2.30;;;;;;;;;;5026342;28;21650;-73
2021/09/24 01:19:09;;;;;;;17.52;3.00;;;;;;;;;;5026758;28;20197;-72
2021/09/24 01:21:36;;;;;;;10.00;2.55;;;;;;;;;;5019959;28;20355;-72
2021/09/24 01:24:02;;;;;;;14.15;2.85;;;;;;;;;;5028481;28;20291;-72
2021/09/24 01:26:27;;;;;;;12.30;2.88;;;;;;;;;;5018821;28;20275;-72
2021/09/24 01:28:56;;;;;;;10.20;2.42;;;;;;;;;;5027389;28;20186;-72
2021/09/24 01:31:22;;;;;;;13.45;2.47;;;;;;;;;;5020672;28;20194;-72
2021/09/24 01:33:48;;;;;;;13.13;2.80;;;;;;;;;;5024973;28;20193;-72
2021/09/24 01:36:15;;;;;;;13.73;2.67;;;;;;;;;;5019617;28;20201;-73
2021/09/24 01:38:40;;;;;;;12.30;2.97;;;;;;;;;;5027018;28;20212;-73
2021/09/24 01:41:07;;;;;;;13.77;2.90;;;;;;;;;;5020862;28;20189;-73
2021/09/24 01:43:34;;;;;;;12.77;2.95;;;;;;;;;;5027573;28;20193;-72
2021/09/24 01:46:00;;;;;;;8.27;2.17;;;;;;;;;;5020302;28;20217;-73
2021/09/24 01:48:25;;;;;;;12.60;2.53;;;;;;;;;;5024069;28;20258;-72
2021/09/24 01:50:50;;;;;;;9.65;2.72;;;;;;;;;;5029629;28;20213;-71
2021/09/24 01:53:16;;;;;;;11.57;2.50;;;;;;;;;;5020363;28;20213;-72
2021/09/24 01:55:41;;;;;;;16.08;3.55;;;;;;;;;;5026996;28;20280;-72
2021/09/24 01:58:06;;;;;;;15.18;2.63;;;;;;;;;;5018711;28;20676;-72
2021/09/24 02:00:32;;;;;;;11.02;2.45;;;;;;;;;;5027546;28;20728;-72
2021/09/24 02:02:57;;;;;;;8.85;2.50;;;;;;;;;;5019934;28;20260;-71
2021/09/24 02:05:23;;;;;;;14.30;2.50;;;;;;;;;;5025716;28;20278;-72
2021/09/24 02:07:48;;;;;;;9.23;2.60;;;;;;;;;;5018537;28;20188;-72
2021/09/24 02:10:13;;;;;;;18.48;3.45;;;;;;;;;;5028877;28;20528;-72
2021/09/24 02:12:39;;;;;;;14.43;2.55;;;;;;;;;;5019703;28;20194;-71
2021/09/24 02:15:05;;;;;;;9.63;2.85;;;;;;;;;;5029796;28;20194;-73
2021/09/24 02:17:31;;;;;;;15.20;2.70;;;;;;;;;;5020300;28;20198;-72
2021/09/24 02:19:56;;;;;;;10.95;2.42;;;;;;;;;;5026535;28;20759;-72
2021/09/24 02:22:21;;;;;;;8.77;2.20;;;;;;;;;;5026655;28;20235;-72
2021/09/24 02:24:47;;;;;;;10.65;2.75;;;;;;;;;;5020863;28;20473;-73
2021/09/24 02:27:12;;;;;;;10.45;2.35;;;;;;;;;;5024394;28;20579;-71
2021/09/24 02:29:37;;;;;;;8.02;2.25;;;;;;;;;;5018996;28;20185;-72
2021/09/24 02:32:03;;;;;;;10.13;2.20;;;;;;;;;;5028145;28;20274;-72
2021/09/24 02:34:29;;;;;;;11.45;2.45;;;;;;;;;;5018751;28;20224;-73
2021/09/24 02:36:54;;;;;;;21.17;2.63;;;;;;;;;;5026963;28;20251;-72
2021/09/24 02:39:20;;;;;;;9.80;2.38;;;;;;;;;;5020380;28;20229;-72
2021/09/24 02:41:45;;;;;;;10.40;2.13;;;;;;;;;;5029718;28;20272;-72
2021/09/24 02:44:12;;;;;;;9.43;2.30;;;;;;;;;;5018155;28;20976;-73
2021/09/24 02:46:37;;;;;;;14.38;2.42;;;;;;;;;;5026276;28;20186;-72
2021/09/24 02:49:03;;;;;;;11.45;2.55;;;;;;;;;;5021117;28;20189;-72
2021/09/24 02:51:28;;;;;;;7.55;1.85;;;;;;;;;;5024679;28;20174;-71
2021/09/24 02:53:53;;;;;;;9.25;2.75;;;;;;;;;;5023468;28;20185;-71
2021/09/24 02:56:19;;;;;;;16.05;2.55;;;;;;;;;;5016927;28;20178;-72
2021/09/24 02:58:44;;;;;;;9.75;2.20;;;;;;;;;;5024804;28;20313;-72
2021/09/24 03:01:09;;;;;;;11.82;2.10;;;;;;;;;;5017098;28;20280;-72
2021/09/24 03:03:35;;;;;;;10.77;2.53;;;;;;;;;;5024824;28;21350;-72
2021/09/24 03:06:00;;;;;;;16.48;2.63;;;;;;;;;;5019175;28;20595;-71
2021/09/24 03:08:25;;;;;;;14.35;2.83;;;;;;;;;;5025049;28;20226;-72
2021/09/24 03:10:51;;;;;;;15.52;2.50;;;;;;;;;;5019555;28;20501;-72
2021/09/24 03:13:16;;;;;;;14.30;2.60;;;;;;;;;;5024032;28;20566;-72
2021/09/24 03:15:41;;;;;;;11.93;2.95;;;;;;;;;;5018339;28;20190;-72
2021/09/24 03:18:07;;;;;;;10.02;2.63;;;;;;;;;;5025371;28;21243;-72
2021/09/24 03:20:32;;;;;;;11.23;2.50;;;;;;;;;;5024213;28;20185;-72
2021/09/24 03:22:57;;;;;;;14.02;3.03;;;;;;;;;;5016993;28;20212;-72
2021/09/24 03:25:23;;;;;;;14.13;2.80;;;;;;;;;;5023482;28;20296;-72
2021/09/24 03:27:49;;;;;;;10.57;2.83;;;;;;;;;;5017020;28;20264;-72
2021/09/24 03:30:15;;;;;;;11.40;2.83;;;;;;;;;;5024105;28;20641;-72
2021/09/24 03:32:42;;;;;;;12.35;2.95;;;;;;;;;;5018231;28;20194;-71
2021/09/24 03:35:08;;;;;;;10.05;3.22;;;;;;;;;;5025765;28;20178;-72
2021/09/24 03:37:33;;;;;;;9.85;2.70;;;;;;;;;;5017232;28;20678;-72
2021/09/24 03:39:59;;;;;;;12.43;2.90;;;;;;;;;;5030904;28;20194;-73
2021/09/24 03:42:24;;;;;;;17.00;2.72;;;;;;;;;;5020649;28;20809;-72
2021/09/24 03:44:51;;;;;;;14.45;3.15;;;;;;;;;;5028502;28;20206;-72
2021/09/24 03:47:16;;;;;;;9.43;3.65;;;;;;;;;;5021192;28;20190;-71
2021/09/24 03:49:41;;;;;;;13.30;3.40;;;;;;;;;;5028670;28;20185;-72
2021/09/24 03:52:07;;;;;;;11.00;3.50;;;;;;;;;;5027030;28;20193;-72
2021/09/24 03:54:32;;;;;;;15.45;3.47;;;;;;;;;;5021150;28;20194;-72
2021/09/24 03:56:58;;;;;;;12.80;2.90;;;;;;;;;;5026389;28;20563;-72
2021/09/24 03:59:23;;;;;;;11.70;2.95;;;;;;;;;;5020025;28;20196;-72
2021/09/24 04:01:48;;;;;;;14.88;3.28;;;;;;;;;;5028535;28;20185;-71
2021/09/24 04:04:14;;;;;;;14.05;3.70;;;;;;;;;;5020896;28;20198;-71
2021/09/24 04:06:39;;;;;;;11.55;3.08;;;;;;;;;;5029074;28;20246;-71
2021/09/24 04:09:04;;;;;;;13.75;4.00;;;;;;;;;;5021911;28;20228;-71
2021/09/24 04:11:30;;;;;;;11.40;3.58;;;;;;;;;;5025766;28;20213;-70
2021/09/24 04:13:55;;;;;;;12.45;3.67;;;;;;;;;;5019188;28;20205;-71
2021/09/24 04:16:21;;;;;;;15.18;3.50;;;;;;;;;;5026933;28;20259;-72
2021/09/24 04:18:47;;;;;;;13.00;3.63;;;;;;;;;;5021950;28;20205;-73
2021/09/24 04:21:13;;;;;;;9.13;3.80;;;;;;;;;;5028010;28;20342;-71
2021/09/24 04:23:39;;;;;;;15.27;3.33;;;;;;;;;;5029796;28;20288;-70
2021/09/24 04:26:04;;;;;;;15.20;3.47;;;;;;;;;;5020505;28;20505;-71
2021/09/24 04:28:30;;;;;;;16.73;4.75;;;;;;;;;;5026448;28;20339;-71
2021/09/24 04:30:56;;;;;;;14.73;3.58;;;;;;;;;;5018801;28;20200;-71
2021/09/24 04:33:21;;;;;;;15.13;3.70;;;;;;;;;;5027968;28;20201;-71
2021/09/24 04:35:46;;;;;;;15.18;3.25;;;;;;;;;;5020339;28;20185;-71
2021/09/24 04:38:12;;;;;;;12.40;3.28;;;;;;;;;;5028079;28;20313;-71
2021/09/24 04:40:38;;;;;;;9.65;3.30;;;;;;;;;;5021341;28;20194;-71
2021/09/24 04:43:04;;;;;;;11.70;3.42;;;;;;;;;;5029058;28;20649;-70
2021/09/24 04:45:29;;;;;;;12.65;3.58;;;;;;;;;;5018124;28;20201;-71
2021/09/24 04:47:55;;;;;;;16.45;3.72;;;;;;;;;;5028317;28;20938;-71
2021/09/24 04:50:20;;;;;;;16.75;3.63;;;;;;;;;;5028482;28;20178;-71
2021/09/24 04:52:46;;;;;;;13.60;3.60;;;;;;;;;;5020487;28;20192;-71
2021/09/24 04:55:11;;;;;;;10.50;3.10;;;;;;;;;;5027275;28;20622;-71
2021/09/24 04:57:38;;;;;;;15.10;3.47;;;;;;;;;;5018546;28;20246;-71
2021/09/24 05:00:08;;;;;;;14.07;3.75;;;;;;;;;;5027567;28;20223;-71
2021/09/24 05:02:34;;;;;;;14.38;3.80;;;;;;;;;;5020577;28;20661;-72
2021/09/24 05:04:59;;;;;;;13.02;3.70;;;;;;;;;;5028763;28;20225;-72
2021/09/24 05:07:25;;;;;;;12.60;3.53;;;;;;;;;;5018922;28;20246;-71
2021/09/24 05:09:50;;;;;;;14.85;3.70;;;;;;;;;;5026457;28;20198;-72
2021/09/24 05:12:15;;;;;;;13.20;2.95;;;;;;;;;;5021505;28;20216;-72
2021/09/24 05:14:41;;;;;;;16.45;3.67;;;;;;;;;;5026871;28;20193;-71
2021/09/24 05:17:06;;;;;;;13.73;4.00;;;;;;;;;;5017086;28;23115;-72
2021/09/24 05:19:31;;;;;;;14.80;4.10;;;;;;;;;;5024701;28;20197;-72
2021/09/24 05:21:57;;;;;;;14.43;3.65;;;;;;;;;;5025629;28;20318;-72
2021/09/24 05:24:22;;;;;;;12.90;3.40;;;;;;;;;;5016949;28;20561;-71
2021/09/24 05:26:47;;;;;;;14.23;3.60;;;;;;;;;;5027699;28;20213;-71
2021/09/24 05:29:13;;;;;;;15.88;3.53;;;;;;;;;;5020072;28;20212;-71
2021/09/24 05:31:38;;;;;;;14.40;3.70;;;;;;;;;;5026172;28;20186;-72
2021/09/24 05:34:04;;;;;;;12.05;3.70;;;;;;;;;;5018731;28;20198;-71
2021/09/24 05:36:30;;;;;;;15.45;3.85;;;;;;;;;;5025882;28;20193;-70
2021/09/24 05:38:56;;;;;;;11.98;3.72;;;;;;;;;;5020427;28;20213;-71
2021/09/24 05:41:21;;;;;;;15.57;3.80;;;;;;;;;;5025189;28;20250;-72
2021/09/24 05:43:50;;;;;;;12.20;3.80;;;;;;;;;;5013542;28;20193;-70
2021/09/24 05:46:19;;;;;;;12.77;4.47;;;;;;;;;;5026501;28;20192;-70
2021/09/24 05:48:44;;;;;;;17.45;4.22;;;;;;;;;;5019586;28;20251;-71
2021/09/24 05:51:10;;;;;;;12.00;3.55;;;;;;;;;;5025020;28;20866;-71
2021/09/24 05:53:35;;;;;;;9.95;3.35;;;;;;;;;;5023503;28;20609;-70
2021/09/24 05:56:01;;;;;;;15.35;3.90;;;;;;;;;;5018167;28;20731;-71
2021/09/24 05:58:26;;;;;;;12.68;3.83;;;;;;;;;;5027568;28;20209;-71
2021/09/24 06:00:52;;;;;;;15.63;3.85;;;;;;;;;;5014327;28;20193;-72
2021/09/24 06:03:17;;;;;;;14.43;3.88;;;;;;;;;;5022526;28;20200;-71
2021/09/24 06:05:42;;;;;;;14.77;3.97;;;;;;;;;;5015132;28;20323;-71
2021/09/24 06:08:08;;;;;;;18.88;4.07;;;;;;;;;;5023010;28;20603;-71
2021/09/24 06:10:33;;;;;;;15.25;4.18;;;;;;;;;;5017775;28;20197;-71
2021/09/24 06:12:59;;;;;;;14.95;3.63;;;;;;;;;;5022953;28;21352;-70
2021/09/24 06:15:25;;;;;;;14.07;4.03;;;;;;;;;;5018474;28;20278;-69
2021/09/24 06:17:51;;;;;;;13.52;5.13;;;;;;;;;;5025016;28;20275;-70
2021/09/24 06:20:17;;;;;;;13.05;4.15;;;;;;;;;;5016606;28;20198;-70
2021/09/24 06:22:43;;;;;;;11.27;4.45;;;;;;;;;;5018704;28;20201;-70
2021/09/24 06:25:09;;;;;;;12.82;4.35;;;;;;;;;;5025012;28;20193;-70
2021/09/24 06:27:36;;;;;;;13.75;4.63;;;;;;;;;;5018525;28;20185;-70
2021/09/24 06:30:04;;;;;;;18.02;5.13;;;;;;;;;;5022424;28;20567;-71
2021/09/24 06:32:29;;;;;;;16.38;5.20;;;;;;;;;;5013629;28;20212;-70
2021/09/24 06:34:55;;;;;;;24.67;6.15;;;;;;;;;;5028636;28;20190;-71
2021/09/24 06:37:20;;;;;;;15.70;6.07;;;;;;;;;;5019616;28;20311;-70
2021/09/24 06:39:46;;;;;;;13.00;5.28;;;;;;;;;;5028297;28;20228;-69
2021/09/24 06:42:12;;;;;;;15.32;6.03;;;;;;;;;;5019632;28;20185;-70
2021/09/24 06:44:38;;;;;;;12.55;5.45;;;;;;;;;;5030683;28;20197;-70
2021/09/24 06:47:03;;;;;;;16.05;6.68;;;;;;;;;;5020790;28;20205;-70
2021/09/24 06:49:29;;;;;;;16.08;7.03;;;;;;;;;;5027657;28;20224;-70
2021/09/24 06:51:57;;;;;;;15.77;7.50;;;;;;;;;;5030544;28;20193;-70
2021/09/24 06:54:24;;;;;;;18.48;6.93;;;;;;;;;;5023333;28;20189;-70
2021/09/24 06:56:49;;;;;;;17.77;8.75;;;;;;;;;;5026566;28;20193;-70
2021/09/24 06:59:15;;;;;;;17.70;9.30;;;;;;;;;;5021312;28;20213;-69
2021/09/24 07:01:42;;;;;;;19.40;9.45;;;;;;;;;;5031316;28;20177;-69
2021/09/24 07:04:08;;;;;;;21.17;11.05;;;;;;;;;;5019421;28;20583;-70
2021/09/24 07:06:33;;;;;;;24.08;12.32;;;;;;;;;;5026371;28;20237;-70
2021/09/24 07:08:59;;;;;;;23.02;13.25;;;;;;;;;;5018436;28;20281;-69
2021/09/24 07:11:24;;;;;;;25.70;13.18;;;;;;;;;;5026075;28;20628;-71
2021/09/24 07:13:50;;;;;;;22.42;11.52;;;;;;;;;;5018608;28;20197;-70
2021/09/24 07:16:15;;;;;;;22.98;13.82;;;;;;;;;;5034450;28;20201;-70
2021/09/24 07:18:41;;;;;;;27.00;16.40;;;;;;;;;;5020641;28;20434;-69
2021/09/24 07:21:06;;;;;;;26.08;15.60;;;;;;;;;;5031217;28;20231;-70
2021/09/24 07:23:31;;;;;;;28.15;17.02;;;;;;;;;;5030761;28;20185;-70
2021/09/24 07:25:57;;;;;;;32.47;19.00;;;;;;;;;;5027008;28;20190;-70
2021/09/24 07:28:22;;;;;;;34.25;20.65;;;;;;;;;;5032913;28;20193;-70
2021/09/24 07:30:48;;;;;;;34.45;21.30;;;;;;;;;;5024492;28;20194;-71
2021/09/24 07:33:13;;;;;;;35.10;21.05;;;;;;;;;;5031697;28;20654;-70
2021/09/24 07:35:39;;;;;;;33.47;21.55;;;;;;;;;;5022723;28;20189;-70
2021/09/24 07:38:04;;;;;;;40.78;23.33;;;;;;;;;;5029926;28;20294;-71
2021/09/24 07:40:29;;;;;;;35.40;23.85;;;;;;;;;;5022216;28;20213;-70
2021/09/24 07:42:56;;;;;;;48.75;25.90;;;;;;;;;;5032792;28;20204;-70
2021/09/24 07:45:23;;;;;;;49.40;26.60;;;;;;;;;;5028151;28;20194;-70
2021/09/24 07:47:48;;;;;;;48.08;26.38;;;;;;;;;;5027424;28;20705;-69
2021/09/24 07:50:14;;;;;;;53.15;28.45;;;;;;;;;;5019538;28;20190;-70
2021/09/24 07:52:40;;;;;;;53.42;29.10;;;;;;;;;;5034280;28;20209;-71
2021/09/24 07:55:06;;;;;;;54.58;29.35;;;;;;;;;;5030895;28;20197;-70
2021/09/24 07:57:32;;;;;;;59.60;31.75;;;;;;;;;;5016981;28;20569;-70
2021/09/24 07:59:57;;;;;;;57.78;32.40;;;;;;;;;;5029530;28;20197;-70
2021/09/24 08:02:23;;;;;;;55.63;30.83;;;;;;;;;;5025409;28;20213;-69
2021/09/24 08:04:49;;;;;;;63.53;33.42;;;;;;;;;;5029602;28;20328;-69
2021/09/24 08:07:14;;;;;;;66.55;34.58;;;;;;;;;;5023435;28;20470;-70
2021/09/24 08:09:40;;;;;;;62.17;33.72;;;;;;;;;;5027467;28;20204;-69
2021/09/24 08:12:05;;;;;;;66.72;35.53;;;;;;;;;;5024592;28;20722;-69
2021/09/24 08:14:31;;;;;;;66.15;36.17;;;;;;;;;;5030026;28;20530;-70
2021/09/24 08:16:57;;;;;;;67.68;35.92;;;;;;;;;;5023899;28;20242;-70
2021/09/24 08:19:22;;;;;;;72.15;37.58;;;;;;;;;;5027274;28;20214;-69
2021/09/24 08:21:48;;;;;;;79.93;39.25;;;;;;;;;;5029247;28;20225;-70
2021/09/24 08:24:13;;;;;;;77.78;38.05;;;;;;;;;;5018241;28;20713;-70
2021/09/24 08:26:38;;;;;;;72.38;37.50;;;;;;;;;;5031531;28;20188;-70
2021/09/24 08:29:04;;;;;;;73.63;38.13;;;;;;;;;;5022573;28;20185;-70
2021/09/24 08:31:30;;;;;;;81.80;39.45;;;;;;;;;;5029322;28;20204;-69
2021/09/24 08:33:57;;;;;;;72.55;39.05;;;;;;;;;;5023289;28;20189;-69
2021/09/24 08:36:23;;;;;;;75.88;40.17;;;;;;;;;;5029381;28;20240;-70
2021/09/24 08:38:48;;;;;;;82.50;37.83;;;;;;;;;;5020677;28;20724;-71
2021/09/24 08:41:13;;;;;;;76.10;38.65;;;;;;;;;;5027604;28;20189;-71
2021/09/24 08:43:40;;;;;;;75.47;38.72;;;;;;;;;;5018798;28;20221;-71
2021/09/24 08:46:05;;;;;;;81.47;38.58;;;;;;;;;;5025686;28;20272;-71
2021/09/24 08:48:34;;;;;;;83.07;40.03;;;;;;;;;;5019253;28;20285;-71
2021/09/24 08:51:00;;;;;;;83.47;40.78;;;;;;;;;;5027374;28;20188;-71
2021/09/24 08:53:26;;;;;;;77.45;39.58;;;;;;;;;;5025203;28;21970;-70
2021/09/24 08:55:52;;;;;;;80.53;39.88;;;;;;;;;;5024951;28;20177;-70
2021/09/24 08:58:18;;;;;;;89.10;40.70;;;;;;;;;;5028569;28;20206;-71
2021/09/24 09:00:45;;;;;;;94.85;41.45;;;;;;;;;;5023788;28;20633;-70
2021/09/24 09:03:14;;;;;;;89.88;41.65;;;;;;;;;;5031890;28;20528;-71
2021/09/24 09:05:54;;;;;;;95.43;43.15;;;;;;;;;;5023966;28;20550;-71
2021/09/24 09:08:27;;;;;;;90.93;42.38;;;;;;;;;;5032700;28;20672;-71
2021/09/24 09:11:02;;;;;;;93.22;41.38;;;;;;;;;;5024971;28;20213;-71
2021/09/24 09:13:33;;;;;;;97.80;42.33;;;;;;;;;;5030204;28;20185;-71
2021/09/24 09:16:02;;;;;;;93.22;42.80;;;;;;;;;;5023327;28;21394;-71
2021/09/24 09:18:31;;;;;;;102.53;43.10;;;;;;;;;;5029944;28;20213;-70
2021/09/24 09:20:57;;;;;;;90.00;42.78;;;;;;;;;;5019615;28;20190;-69
2021/09/24 09:23:24;;;;;;;90.57;42.08;;;;;;;;;;5032835;28;20208;-69
2021/09/24 09:25:51;;;;;;;83.75;42.47;;;;;;;;;;5024908;28;20674;-70
2021/09/24 09:28:36;;;;;;;79.40;40.30;;;;;;;;;;5031945;28;20182;-69
2021/09/24 09:31:15;;;;;;;83.90;41.67;;;;;;;;;;5023582;28;20596;-69
2021/09/24 09:33:40;;;;;;;78.43;38.75;;;;;;;;;;5031524;28;20255;-69
2021/09/24 09:36:05;;;;;;;72.65;39.15;;;;;;;;;;5016807;28;21456;-69
2021/09/24 09:38:41;;;;;;;69.65;38.95;;;;;;;;;;5026027;28;20288;-69
2021/09/24 09:41:10;;;;;;;71.45;37.88;;;;;;;;;;5023685;28;20188;-70
2021/09/24 09:43:48;;;;;;;68.07;36.00;;;;;;;;;;5029970;28;20224;-70
2021/09/24 09:46:17;;;;;;;64.40;36.83;;;;;;;;;;5029113;28;20181;-70
2021/09/24 09:48:45;;;;;;;65.95;35.30;;;;;;;;;;5026780;28;20180;-70
2021/09/24 09:51:20;;;;;;;64.45;34.45;;;;;;;;;;5030178;28;20177;-70
2021/09/24 09:53:49;;;;;;;66.28;35.72;;;;;;;;;;5019947;28;20557;-70
2021/09/24 09:56:14;;;;;;;59.60;35.92;;;;;;;;;;5027614;28;20193;-71
2021/09/24 09:58:40;;;;;;;59.53;35.08;;;;;;;;;;5018139;28;20214;-71
2021/09/24 10:01:09;;;;;;;55.85;33.38;;;;;;;;;;5027285;28;20209;-71
2021/09/24 10:03:41;;;;;;;55.58;34.13;;;;;;;;;;5018840;28;20198;-71
2021/09/24 10:06:34;;;;;;;59.28;34.72;;;;;;;;;;5026765;28;20654;-70
2021/09/24 10:09:04;;;;;;;58.33;34.47;;;;;;;;;;5020290;28;20198;-70
2021/09/24 10:11:38;;;;;;;52.42;32.05;;;;;;;;;;5028947;28;20190;-71
2021/09/24 10:14:13;;;;;;;61.63;33.00;;;;;;;;;;5019812;28;20216;-70
2021/09/24 10:16:45;;;;;;;56.65;33.25;;;;;;;;;;5025784;28;20209;-70
2021/09/24 10:19:12;;;;;;;53.75;32.90;;;;;;;;;;5021805;28;20300;-70
2021/09/24 10:21:37;;;;;;;53.80;32.35;;;;;;;;;;5030182;28;20711;-70
2021/09/24 10:24:05;;;;;;;53.70;32.47;;;;;;;;;;5020499;28;20181;-70
2021/09/24 10:26:41;;;;;;;53.00;31.13;;;;;;;;;;5009340;28;20193;-70
2021/09/24 10:29:12;;;;;;;52.92;29.65;;;;;;;;;;5026086;28;20710;-71
2021/09/24 10:31:41;;;;;;;49.80;30.80;;;;;;;;;;5026746;28;20193;-71
2021/09/24 10:34:07;;;;;;;47.15;28.98;;;;;;;;;;5018688;28;20640;-71
2021/09/24 10:36:42;;;;;;;46.85;28.45;;;;;;;;;;5029469;28;20185;-71
2021/09/24 10:39:28;;;;;;;51.30;29.10;;;;;;;;;;5023666;28;20735;-71
2021/09/24 10:42:24;;;;;;;49.00;30.15;;;;;;;;;;5027265;28;20216;-71
2021/09/24 10:45:17;;;;;;;48.88;27.63;;;;;;;;;;5020098;28;20301;-70
2021/09/24 10:48:02;;;;;;;49.97;28.98;;;;;;;;;;5028288;28;20189;-71
2021/09/24 10:50:34;;;;;;;48.15;29.58;;;;;;;;;;5025008;28;20188;-70
2021/09/24 10:53:12;;;;;;;49.80;28.13;;;;;;;;;;5031549;28;20197;-70
2021/09/24 10:55:48;;;;;;;47.05;27.88;;;;;;;;;;5026846;28;20194;-70
2021/09/24 10:58:26;;;;;;;54.33;29.77;;;;;;;;;;5031533;28;20607;-69
2021/09/24 11:00:59;;;;;;;46.50;29.73;;;;;;;;;;5025025;28;20286;-70
2021/09/24 11:03:27;;;;;;;46.55;26.88;;;;;;;;;;5031603;28;20312;-70
2021/09/24 11:06:10;;;;;;;49.15;29.52;;;;;;;;;;5024019;28;20244;-70
2021/09/24 11:08:40;;;;;;;42.00;26.63;;;;;;;;;;5032891;28;20258;-70
2021/09/24 11:11:20;;;;;;;48.30;28.30;;;;;;;;;;5027613;28;20189;-70
2021/09/24 11:13:50;;;;;;;46.08;27.92;;;;;;;;;;5028878;28;20239;-71
2021/09/24 11:16:28;;;;;;;42.90;25.48;;;;;;;;;;5020968;28;20189;-70
2021/09/24 11:18:55;;;;;;;42.53;25.98;;;;;;;;;;5034411;28;20288;-70
2021/09/24 11:21:38;;;;;;;41.53;25.60;;;;;;;;;;5023052;28;20220;-70
2021/09/24 11:24:26;;;;;;;45.00;26.13;;;;;;;;;;5032958;28;20240;-71
2021/09/24 11:26:57;;;;;;;42.97;26.48;;;;;;;;;;5023576;28;20798;-71
2021/09/24 11:29:23;;;;;;;43.10;26.30;;;;;;;;;;5033792;28;20167;-70
2021/09/24 11:32:00;;;;;;;43.53;25.13;;;;;;;;;;5024134;28;22009;-70
2021/09/24 11:34:38;;;;;;;35.83;24.23;;;;;;;;;;5033031;28;20181;-71
2021/09/24 11:37:06;;;;;;;40.05;24.58;;;;;;;;;;5024534;28;20633;-70
2021/09/24 11:39:32;;;;;;;43.17;24.38;;;;;;;;;;5027791;28;20856;-71
2021/09/24 11:42:09;;;;;;;38.70;23.08;;;;;;;;;;5029211;28;20181;-70
2021/09/24 11:44:36;;;;;;;34.92;22.88;;;;;;;;;;5022708;28;20194;-72
2021/09/24 11:47:14;;;;;;;35.75;22.73;;;;;;;;;;5032244;28;20181;-70
2021/09/24 11:49:55;;;;;;;32.67;21.38;;;;;;;;;;5022306;28;20294;-70
2021/09/24 11:52:34;;;;;;;33.75;21.92;;;;;;;;;;5031180;28;20220;-71
2021/09/24 11:55:31;;;;;;;31.70;21.65;;;;;;;;;;5021800;28;20635;-70
2021/09/24 11:58:02;;;;;;;33.47;20.45;;;;;;;;;;5028232;28;20267;-71
2021/09/24 12:00:46;;;;;;;33.28;21.15;;;;;;;;;;5019015;28;20201;-72
2021/09/24 12:03:31;;;;;;;29.48;19.77;;;;;;;;;;5028576;28;20186;-70
2021/09/24 12:06:02;;;;;;;27.35;18.15;;;;;;;;;;5030026;28;20225;-70
2021/09/24 12:08:33;;;;;;;26.05;18.27;;;;;;;;;;5027230;28;20717;-70
2021/09/24 12:11:03;;;;;;;24.10;17.45;;;;;;;;;;5022543;28;20214;-70
2021/09/24 12:13:40;;;;;;;24.65;18.08;;;;;;;;;;5028836;28;20239;-71
2021/09/24 12:16:07;;;;;;;25.73;16.58;;;;;;;;;;5023821;28;22110;-70
2021/09/24 12:18:58;;;;;;;22.05;15.85;;;;;;;;;;5029327;28;20229;-71
2021/09/24 12:21:26;;;;;;;21.80;14.93;;;;;;;;;;5022015;28;20256;-71
2021/09/24 12:23:53;;;;;;;17.95;13.40;;;;;;;;;;5030335;28;20193;-70
2021/09/24 12:26:28;;;;;;;19.42;13.18;;;;;;;;;;5025801;28;20272;-70
2021/09/24 12:28:57;;;;;;;17.45;12.82;;;;;;;;;;5028129;28;20530;-70
2021/09/24 12:31:36;;;;;;;22.80;14.32;;;;;;;;;;5022441;28;20620;-70
2021/09/24 12:34:01;;;;;;;20.20;13.65;;;;;;;;;;5032631;28;20317;-70
2021/09/24 12:36:27;;;;;;;18.13;13.68;;;;;;;;;;5020008;28;20892;-70
2021/09/24 12:38:52;;;;;;;23.08;13.15;;;;;;;;;;5031840;28;20408;-70
2021/09/24 12:41:18;;;;;;;16.42;13.23;;;;;;;;;;5020381;28;20208;-70
2021/09/24 12:43:46;;;;;;;13.32;11.43;;;;;;;;;;5031103;28;20239;-70
2021/09/24 12:46:14;;;;;;;17.15;12.25;;;;;;;;;;5021043;28;20283;-71
2021/09/24 12:48:45;;;;;;;18.10;12.85;;;;;;;;;;5029436;28;20216;-71
2021/09/24 12:51:12;;;;;;;15.15;12.25;;;;;;;;;;5019874;28;20265;-71
2021/09/24 12:53:40;;;;;;;18.80;12.90;;;;;;;;;;5030185;28;20240;-71
2021/09/24 12:56:06;;;;;;;16.45;12.77;;;;;;;;;;5029422;28;20209;-70
2021/09/24 12:58:36;;;;;;;18.42;13.65;;;;;;;;;;5022157;28;20252;-70
2021/09/24 13:01:06;;;;;;;18.45;13.13;;;;;;;;;;5030260;28;20219;-70
2021/09/24 13:03:41;;;;;;;19.45;13.55;;;;;;;;;;5022183;28;20262;-68
2021/09/24 13:06:08;;;;;;;17.73;13.70;;;;;;;;;;5026142;28;20294;-70
2021/09/24 13:08:34;;;;;;;22.27;14.68;;;;;;;;;;5021027;28;20200;-69
2021/09/24 13:11:00;;;;;;;17.30;14.13;;;;;;;;;;5029089;28;20240;-70
2021/09/24 13:13:26;;;;;;;17.48;13.13;;;;;;;;;;5020052;28;20193;-69
2021/09/24 13:15:53;;;;;;;19.83;15.88;;;;;;;;;;5031776;28;20197;-70
2021/09/24 13:18:18;;;;;;;17.83;14.13;;;;;;;;;;5021439;28;20293;-71
2021/09/24 13:20:45;;;;;;;17.95;13.45;;;;;;;;;;5032158;28;20701;-69
2021/09/24 13:23:10;;;;;;;17.05;13.52;;;;;;;;;;5020641;28;20293;-70
2021/09/24 13:25:36;;;;;;;17.90;14.00;;;;;;;;;;5028118;28;20316;-70
2021/09/24 13:28:01;;;;;;;16.85;13.80;;;;;;;;;;5020729;28;20190;-70
2021/09/24 13:30:26;;;;;;;16.30;13.63;;;;;;;;;;5024389;28;20193;-70
2021/09/24 13:32:52;;;;;;;17.85;14.45;;;;;;;;;;5029658;28;20189;-70
2021/09/24 13:35:17;;;;;;;21.38;14.75;;;;;;;;;;5019020;28;20214;-70
2021/09/24 13:37:43;;;;;;;19.40;13.55;;;;;;;;;;5027243;28;20205;-70
2021/09/24 13:40:10;;;;;;;15.95;13.30;;;;;;;;;;5021139;28;20190;-71
2021/09/24 13:42:37;;;;;;;19.55;12.95;;;;;;;;;;5023195;28;20201;-69
2021/09/24 13:45:04;;;;;;;17.77;12.80;;;;;;;;;;5021093;28;20209;-69
2021/09/24 13:47:30;;;;;;;20.27;13.18;;;;;;;;;;5025355;28;20315;-70
2021/09/24 13:49:55;;;;;;;19.73;13.27;;;;;;;;;;5020281;28;20205;-70
2021/09/24 13:52:21;;;;;;;17.45;12.00;;;;;;;;;;5028623;28;20830;-69
2021/09/24 13:54:47;;;;;;;15.68;11.40;;;;;;;;;;5019896;28;20193;-69
2021/09/24 13:57:12;;;;;;;18.77;12.93;;;;;;;;;;5025305;28;20685;-69
2021/09/24 13:59:37;;;;;;;14.93;13.10;;;;;;;;;;5022426;28;20213;-69
2021/09/24 14:02:03;;;;;;;17.70;13.25;;;;;;;;;;5029273;28;20531;-69
2021/09/24 14:04:28;;;;;;;17.35;13.50;;;;;;;;;;5026807;28;20204;-69
2021/09/24 14:06:54;;;;;;;18.80;14.20;;;;;;;;;;5018892;28;20240;-70
2021/09/24 14:09:19;;;;;;;19.67;14.43;;;;;;;;;;5028771;28;20178;-70
2021/09/24 14:11:44;;;;;;;17.30;14.25;;;;;;;;;;5019483;28;20198;-69
2021/09/24 14:14:10;;;;;;;19.48;14.20;;;;;;;;;;5028101;28;20185;-69
2021/09/24 14:16:35;;;;;;;19.08;14.55;;;;;;;;;;5021495;28;20603;-70
2021/09/24 14:19:03;;;;;;;16.70;14.15;;;;;;;;;;5028662;28;21353;-70
2021/09/24 14:21:29;;;;;;;17.08;13.35;;;;;;;;;;5017569;28;20196;-70
2021/09/24 14:23:55;;;;;;;23.95;16.25;;;;;;;;;;5031640;28;20197;-70
2021/09/24 14:26:20;;;;;;;18.85;15.75;;;;;;;;;;5018597;28;20645;-69